sensor_id;sensor_type;location;lat;lon;timestamp;temperature;humidity
53978;DHT22;39886;47.984;-1.586;2023-02-28T00:00:10;18.70;47.30
53978;DHT22;39886;47.984;-1.586;2023-02-28T00:02:41;18.70;47.30
53978;DHT22;39886;47.984;-1.586;2023-02-28T00:05:09;18.70;47.30
53978;DHT22;39886;47.984;-1.586;2023-02-28T00:07:35;18.80;47.30
53978;DHT22;39886;47.984;-1.586;2023-02-28T00:10:01;18.80;47.30
53978;DHT22;39886;47.984;-1.586;2023-02-28T00:12:27;18.80;47.30
53978;DHT22;39886;47.984;-1.586;2023-02-28T00:14:53;18.80;47.20
53978;DHT22;39886;47.984;-1.586;2023-02-28T00:17:19;18.80;47.80
53978;DHT22;39886;47.984;-1.586;2023-02-28T00:19:50;18.80;47.10
53978;DHT22;39886;47.984;-1.586;2023-02-28T00:22:20;18.80;47.10
53978;DHT22;39886;47.984;-1.586;2023-02-28T00:24:46;18.80;47.00
53978;DHT22;39886;47.984;-1.586;2023-02-28T00:27:13;18.80;47.00
53978;DHT22;39886;47.984;-1.586;2023-02-28T00:29:39;18.80;47.00
53978;DHT22;39886;47.984;-1.586;2023-02-28T00:32:06;18.90;47.00
53978;DHT22;39886;47.984;-1.586;2023-02-28T00:34:32;18.80;46.90
53978;DHT22;39886;47.984;-1.586;2023-02-28T00:37:04;18.90;46.90
53978;DHT22;39886;47.984;-1.586;2023-02-28T00:39:30;18.90;46.90
53978;DHT22;39886;47.984;-1.586;2023-02-28T00:41:55;18.90;46.90
53978;DHT22;39886;47.984;-1.586;2023-02-28T00:44:21;18.90;46.80
53978;DHT22;39886;47.984;-1.586;2023-02-28T00:46:47;18.90;46.80
53978;DHT22;39886;47.984;-1.586;2023-02-28T00:49:13;18.90;46.80
53978;DHT22;39886;47.984;-1.586;2023-02-28T00:51:38;18.90;46.70
53978;DHT22;39886;47.984;-1.586;2023-02-28T00:54:04;19.00;46.70
53978;DHT22;39886;47.984;-1.586;2023-02-28T00:56:30;19.00;46.70
53978;DHT22;39886;47.984;-1.586;2023-02-28T00:58:56;19.00;46.70
53978;DHT22;39886;47.984;-1.586;2023-02-28T01:01:21;19.00;46.60
53978;DHT22;39886;47.984;-1.586;2023-02-28T01:03:47;19.00;46.60
53978;DHT22;39886;47.984;-1.586;2023-02-28T01:06:13;19.00;46.50
53978;DHT22;39886;47.984;-1.586;2023-02-28T01:08:39;19.00;46.50
53978;DHT22;39886;47.984;-1.586;2023-02-28T01:11:12;19.00;46.50
53978;DHT22;39886;47.984;-1.586;2023-02-28T01:13:38;19.00;46.50
53978;DHT22;39886;47.984;-1.586;2023-02-28T01:16:04;19.00;46.40
53978;DHT22;39886;47.984;-1.586;2023-02-28T01:18:30;19.00;46.40
53978;DHT22;39886;47.984;-1.586;2023-02-28T01:20:56;19.00;46.40
53978;DHT22;39886;47.984;-1.586;2023-02-28T01:23:23;19.00;46.30
53978;DHT22;39886;47.984;-1.586;2023-02-28T01:25:50;19.00;46.30
53978;DHT22;39886;47.984;-1.586;2023-02-28T01:28:16;19.10;46.40
53978;DHT22;39886;47.984;-1.586;2023-02-28T01:30:42;19.10;46.30
53978;DHT22;39886;47.984;-1.586;2023-02-28T01:33:07;19.10;46.30
53978;DHT22;39886;47.984;-1.586;2023-02-28T01:35:34;19.10;46.30
53978;DHT22;39886;47.984;-1.586;2023-02-28T01:38:01;19.10;46.30
53978;DHT22;39886;47.984;-1.586;2023-02-28T01:40:27;19.10;46.30
53978;DHT22;39886;47.984;-1.586;2023-02-28T01:42:52;19.00;46.20
53978;DHT22;39886;47.984;-1.586;2023-02-28T01:45:28;19.10;46.20
53978;DHT22;39886;47.984;-1.586;2023-02-28T01:48:04;19.10;46.20
53978;DHT22;39886;47.984;-1.586;2023-02-28T01:50:35;19.10;46.20
53978;DHT22;39886;47.984;-1.586;2023-02-28T01:53:05;19.10;46.20
53978;DHT22;39886;47.984;-1.586;2023-02-28T01:55:32;19.10;46.20
53978;DHT22;39886;47.984;-1.586;2023-02-28T01:58:01;19.10;46.20
53978;DHT22;39886;47.984;-1.586;2023-02-28T02:00:29;19.10;46.10
53978;DHT22;39886;47.984;-1.586;2023-02-28T02:03:08;19.10;46.10
53978;DHT22;39886;47.984;-1.586;2023-02-28T02:05:37;19.10;46.10
53978;DHT22;39886;47.984;-1.586;2023-02-28T02:08:09;19.10;46.10
53978;DHT22;39886;47.984;-1.586;2023-02-28T02:10:41;19.10;46.00
53978;DHT22;39886;47.984;-1.586;2023-02-28T02:16:20;19.20;46.10
53978;DHT22;39886;47.984;-1.586;2023-02-28T02:18:57;19.20;46.10
53978;DHT22;39886;47.984;-1.586;2023-02-28T02:24:07;19.20;45.90
53978;DHT22;39886;47.984;-1.586;2023-02-28T02:26:47;19.20;45.90
53978;DHT22;39886;47.984;-1.586;2023-02-28T02:35:18;19.20;45.90
53978;DHT22;39886;47.984;-1.586;2023-02-28T02:38:03;19.20;45.90
53978;DHT22;39886;47.984;-1.586;2023-02-28T02:40:38;19.20;45.90
53978;DHT22;39886;47.984;-1.586;2023-02-28T02:43:22;19.20;45.90
53978;DHT22;39886;47.984;-1.586;2023-02-28T02:46:02;19.20;45.80
53978;DHT22;39886;47.984;-1.586;2023-02-28T02:48:33;19.20;45.80
53978;DHT22;39886;47.984;-1.586;2023-02-28T02:51:03;19.20;45.80
53978;DHT22;39886;47.984;-1.586;2023-02-28T02:53:34;19.20;45.80
53978;DHT22;39886;47.984;-1.586;2023-02-28T02:56:01;19.20;45.80
53978;DHT22;39886;47.984;-1.586;2023-02-28T02:58:33;19.20;45.80
53978;DHT22;39886;47.984;-1.586;2023-02-28T03:01:01;19.20;45.80
53978;DHT22;39886;47.984;-1.586;2023-02-28T03:03:29;19.20;45.70
53978;DHT22;39886;47.984;-1.586;2023-02-28T03:06:00;19.20;45.60
53978;DHT22;39886;47.984;-1.586;2023-02-28T03:08:27;19.20;45.60
53978;DHT22;39886;47.984;-1.586;2023-02-28T03:10:59;19.20;45.60
53978;DHT22;39886;47.984;-1.586;2023-02-28T03:24:50;19.30;45.70
53978;DHT22;39886;47.984;-1.586;2023-02-28T03:27:29;19.30;45.60
53978;DHT22;39886;47.984;-1.586;2023-02-28T03:30:03;19.30;45.60
53978;DHT22;39886;47.984;-1.586;2023-02-28T03:35:40;19.30;45.60
53978;DHT22;39886;47.984;-1.586;2023-02-28T03:38:27;19.30;45.70
53978;DHT22;39886;47.984;-1.586;2023-02-28T03:41:04;19.20;45.60
53978;DHT22;39886;47.984;-1.586;2023-02-28T03:43:35;19.30;45.60
53978;DHT22;39886;47.984;-1.586;2023-02-28T03:46:07;19.30;45.60
53978;DHT22;39886;47.984;-1.586;2023-02-28T03:48:45;19.30;45.50
53978;DHT22;39886;47.984;-1.586;2023-02-28T03:51:17;19.30;45.60
53978;DHT22;39886;47.984;-1.586;2023-02-28T03:53:49;19.30;45.50
53978;DHT22;39886;47.984;-1.586;2023-02-28T03:56:24;19.30;45.50
53978;DHT22;39886;47.984;-1.586;2023-02-28T03:59:06;19.20;45.50
53978;DHT22;39886;47.984;-1.586;2023-02-28T04:01:41;19.30;45.50
53978;DHT22;39886;47.984;-1.586;2023-02-28T04:04:11;19.30;45.50
53978;DHT22;39886;47.984;-1.586;2023-02-28T04:06:38;19.30;45.50
53978;DHT22;39886;47.984;-1.586;2023-02-28T04:09:06;19.30;45.40
53978;DHT22;39886;47.984;-1.586;2023-02-28T04:14:05;19.30;45.40
53978;DHT22;39886;47.984;-1.586;2023-02-28T04:16:32;19.30;45.50
53978;DHT22;39886;47.984;-1.586;2023-02-28T04:18:58;19.30;45.40
53978;DHT22;39886;47.984;-1.586;2023-02-28T04:21:37;19.30;45.40
53978;DHT22;39886;47.984;-1.586;2023-02-28T04:24:05;19.30;45.40
53978;DHT22;39886;47.984;-1.586;2023-02-28T04:26:32;19.30;45.40
53978;DHT22;39886;47.984;-1.586;2023-02-28T04:29:01;19.30;45.40
53978;DHT22;39886;47.984;-1.586;2023-02-28T04:31:28;19.30;45.30
53978;DHT22;39886;47.984;-1.586;2023-02-28T04:33:53;19.30;45.30
53978;DHT22;39886;47.984;-1.586;2023-02-28T04:36:19;19.30;45.40
53978;DHT22;39886;47.984;-1.586;2023-02-28T04:38:45;19.30;45.30
53978;DHT22;39886;47.984;-1.586;2023-02-28T04:41:12;19.30;45.30
53978;DHT22;39886;47.984;-1.586;2023-02-28T04:43:38;19.30;45.30
53978;DHT22;39886;47.984;-1.586;2023-02-28T04:46:04;19.30;45.30
53978;DHT22;39886;47.984;-1.586;2023-02-28T04:48:34;19.30;45.30
53978;DHT22;39886;47.984;-1.586;2023-02-28T04:51:10;19.30;45.30
53978;DHT22;39886;47.984;-1.586;2023-02-28T04:53:38;19.30;45.30
53978;DHT22;39886;47.984;-1.586;2023-02-28T04:56:05;19.30;45.30
53978;DHT22;39886;47.984;-1.586;2023-02-28T04:58:32;19.30;45.30
53978;DHT22;39886;47.984;-1.586;2023-02-28T05:01:20;19.30;45.20
53978;DHT22;39886;47.984;-1.586;2023-02-28T05:03:46;19.30;45.30
53978;DHT22;39886;47.984;-1.586;2023-02-28T05:06:13;19.30;45.30
53978;DHT22;39886;47.984;-1.586;2023-02-28T05:08:39;19.30;45.20
53978;DHT22;39886;47.984;-1.586;2023-02-28T05:11:26;19.30;45.20
53978;DHT22;39886;47.984;-1.586;2023-02-28T05:13:54;19.30;45.30
53978;DHT22;39886;47.984;-1.586;2023-02-28T05:16:21;19.20;45.20
53978;DHT22;39886;47.984;-1.586;2023-02-28T05:18:47;19.30;45.20
53978;DHT22;39886;47.984;-1.586;2023-02-28T05:23:50;19.30;45.20
53978;DHT22;39886;47.984;-1.586;2023-02-28T05:26:15;19.30;45.20
53978;DHT22;39886;47.984;-1.586;2023-02-28T05:28:41;19.30;45.20
53978;DHT22;39886;47.984;-1.586;2023-02-28T05:31:10;19.30;45.20
53978;DHT22;39886;47.984;-1.586;2023-02-28T05:33:36;19.30;45.20
53978;DHT22;39886;47.984;-1.586;2023-02-28T05:36:02;19.20;45.10
53978;DHT22;39886;47.984;-1.586;2023-02-28T05:38:28;19.30;45.10
53978;DHT22;39886;47.984;-1.586;2023-02-28T05:40:54;19.30;45.10
53978;DHT22;39886;47.984;-1.586;2023-02-28T05:43:19;19.30;45.10
53978;DHT22;39886;47.984;-1.586;2023-02-28T05:45:45;19.30;45.10
53978;DHT22;39886;47.984;-1.586;2023-02-28T05:48:12;19.30;45.20
53978;DHT22;39886;47.984;-1.586;2023-02-28T05:50:37;19.30;45.10
53978;DHT22;39886;47.984;-1.586;2023-02-28T05:53:03;19.30;45.10
53978;DHT22;39886;47.984;-1.586;2023-02-28T05:55:29;19.30;45.10
53978;DHT22;39886;47.984;-1.586;2023-02-28T05:57:55;19.30;45.10
53978;DHT22;39886;47.984;-1.586;2023-02-28T06:00:22;19.20;45.10
53978;DHT22;39886;47.984;-1.586;2023-02-28T06:02:48;19.20;45.00
53978;DHT22;39886;47.984;-1.586;2023-02-28T06:05:16;19.30;45.10
53978;DHT22;39886;47.984;-1.586;2023-02-28T06:07:43;19.30;45.10
53978;DHT22;39886;47.984;-1.586;2023-02-28T06:10:10;19.30;45.10
53978;DHT22;39886;47.984;-1.586;2023-02-28T06:12:36;19.20;45.00
53978;DHT22;39886;47.984;-1.586;2023-02-28T06:15:03;19.30;45.10
53978;DHT22;39886;47.984;-1.586;2023-02-28T06:17:28;19.30;45.00
53978;DHT22;39886;47.984;-1.586;2023-02-28T06:19:54;19.30;45.00
53978;DHT22;39886;47.984;-1.586;2023-02-28T06:22:20;19.20;45.00
53978;DHT22;39886;47.984;-1.586;2023-02-28T06:24:46;19.20;45.00
53978;DHT22;39886;47.984;-1.586;2023-02-28T06:27:11;19.20;45.00
53978;DHT22;39886;47.984;-1.586;2023-02-28T06:29:37;19.20;45.00
53978;DHT22;39886;47.984;-1.586;2023-02-28T06:32:05;19.20;44.90
53978;DHT22;39886;47.984;-1.586;2023-02-28T06:34:31;19.20;45.60
53978;DHT22;39886;47.984;-1.586;2023-02-28T06:36:57;19.20;44.90
53978;DHT22;39886;47.984;-1.586;2023-02-28T06:39:29;19.20;44.90
53978;DHT22;39886;47.984;-1.586;2023-02-28T06:41:55;19.20;44.90
53978;DHT22;39886;47.984;-1.586;2023-02-28T06:44:21;19.20;44.90
53978;DHT22;39886;47.984;-1.586;2023-02-28T06:46:47;19.20;44.90
53978;DHT22;39886;47.984;-1.586;2023-02-28T06:49:14;19.20;44.90
53978;DHT22;39886;47.984;-1.586;2023-02-28T06:51:44;19.20;44.90
53978;DHT22;39886;47.984;-1.586;2023-02-28T06:54:13;19.20;44.90
53978;DHT22;39886;47.984;-1.586;2023-02-28T06:56:39;19.20;44.90
53978;DHT22;39886;47.984;-1.586;2023-02-28T06:59:05;19.20;44.80
53978;DHT22;39886;47.984;-1.586;2023-02-28T07:01:31;19.20;44.80
53978;DHT22;39886;47.984;-1.586;2023-02-28T07:03:58;19.20;44.80
53978;DHT22;39886;47.984;-1.586;2023-02-28T07:06:25;19.20;44.80
53978;DHT22;39886;47.984;-1.586;2023-02-28T07:08:52;19.30;44.90
53978;DHT22;39886;47.984;-1.586;2023-02-28T07:11:19;19.30;44.90
53978;DHT22;39886;47.984;-1.586;2023-02-28T07:13:45;19.30;44.90
53978;DHT22;39886;47.984;-1.586;2023-02-28T07:16:13;19.30;44.80
53978;DHT22;39886;47.984;-1.586;2023-02-28T07:18:39;19.30;45.00
53978;DHT22;39886;47.984;-1.586;2023-02-28T07:21:07;19.30;44.80
53978;DHT22;39886;47.984;-1.586;2023-02-28T07:23:33;19.30;44.70
53978;DHT22;39886;47.984;-1.586;2023-02-28T07:25:59;19.30;44.70
53978;DHT22;39886;47.984;-1.586;2023-02-28T07:28:25;19.40;44.80
53978;DHT22;39886;47.984;-1.586;2023-02-28T07:30:51;19.30;44.70
53978;DHT22;39886;47.984;-1.586;2023-02-28T07:33:17;19.30;44.80
53978;DHT22;39886;47.984;-1.586;2023-02-28T07:35:43;19.40;44.90
53978;DHT22;39886;47.984;-1.586;2023-02-28T07:38:09;19.40;44.90
53978;DHT22;39886;47.984;-1.586;2023-02-28T07:40:35;19.40;44.80
53978;DHT22;39886;47.984;-1.586;2023-02-28T07:43:02;19.40;44.90
53978;DHT22;39886;47.984;-1.586;2023-02-28T07:45:29;19.40;45.00
53978;DHT22;39886;47.984;-1.586;2023-02-28T07:47:55;19.50;45.10
53978;DHT22;39886;47.984;-1.586;2023-02-28T07:50:21;19.50;44.90
53978;DHT22;39886;47.984;-1.586;2023-02-28T07:52:47;19.50;44.90
53978;DHT22;39886;47.984;-1.586;2023-02-28T07:55:13;19.50;44.80
53978;DHT22;39886;47.984;-1.586;2023-02-28T07:57:40;19.50;44.80
53978;DHT22;39886;47.984;-1.586;2023-02-28T08:00:08;19.50;45.00
53978;DHT22;39886;47.984;-1.586;2023-02-28T08:02:35;19.50;45.30
53978;DHT22;39886;47.984;-1.586;2023-02-28T08:05:01;19.60;45.30
53978;DHT22;39886;47.984;-1.586;2023-02-28T08:07:27;19.60;45.30
53978;DHT22;39886;47.984;-1.586;2023-02-28T08:09:53;19.60;45.60
53978;DHT22;39886;47.984;-1.586;2023-02-28T08:12:19;19.70;45.80
53978;DHT22;39886;47.984;-1.586;2023-02-28T08:14:45;19.70;45.90
53978;DHT22;39886;47.984;-1.586;2023-02-28T08:17:11;19.70;45.90
53978;DHT22;39886;47.984;-1.586;2023-02-28T08:19:38;19.80;46.00
53978;DHT22;39886;47.984;-1.586;2023-02-28T08:22:03;19.80;47.80
53978;DHT22;39886;47.984;-1.586;2023-02-28T08:24:29;19.80;47.00
53978;DHT22;39886;47.984;-1.586;2023-02-28T08:26:56;19.90;46.30
53978;DHT22;39886;47.984;-1.586;2023-02-28T08:29:22;19.90;46.40
53978;DHT22;39886;47.984;-1.586;2023-02-28T08:31:48;19.90;46.30
53978;DHT22;39886;47.984;-1.586;2023-02-28T08:34:15;20.00;46.60
53978;DHT22;39886;47.984;-1.586;2023-02-28T08:36:41;20.00;46.70
53978;DHT22;39886;47.984;-1.586;2023-02-28T08:39:10;20.00;47.10
53978;DHT22;39886;47.984;-1.586;2023-02-28T08:41:35;20.10;46.90
53978;DHT22;39886;47.984;-1.586;2023-02-28T08:44:02;20.10;47.30
53978;DHT22;39886;47.984;-1.586;2023-02-28T08:46:28;20.10;46.90
53978;DHT22;39886;47.984;-1.586;2023-02-28T08:48:55;20.20;47.10
53978;DHT22;39886;47.984;-1.586;2023-02-28T08:51:22;20.20;47.00
53978;DHT22;39886;47.984;-1.586;2023-02-28T08:53:53;20.20;47.10
53978;DHT22;39886;47.984;-1.586;2023-02-28T08:56:19;20.30;47.00
53978;DHT22;39886;47.984;-1.586;2023-02-28T08:58:46;20.30;47.00
53978;DHT22;39886;47.984;-1.586;2023-02-28T09:01:21;20.30;47.20
53978;DHT22;39886;47.984;-1.586;2023-02-28T09:03:48;20.40;47.20
53978;DHT22;39886;47.984;-1.586;2023-02-28T09:06:15;20.40;47.20
53978;DHT22;39886;47.984;-1.586;2023-02-28T09:08:42;20.50;47.10
53978;DHT22;39886;47.984;-1.586;2023-02-28T09:11:09;20.50;47.10
53978;DHT22;39886;47.984;-1.586;2023-02-28T09:13:35;20.60;47.20
53978;DHT22;39886;47.984;-1.586;2023-02-28T09:16:03;20.60;47.20
53978;DHT22;39886;47.984;-1.586;2023-02-28T09:18:29;20.60;47.30
53978;DHT22;39886;47.984;-1.586;2023-02-28T09:20:56;20.60;47.60
53978;DHT22;39886;47.984;-1.586;2023-02-28T09:23:22;20.60;47.50
53978;DHT22;39886;47.984;-1.586;2023-02-28T09:25:49;20.70;47.60
53978;DHT22;39886;47.984;-1.586;2023-02-28T09:28:16;20.70;47.60
53978;DHT22;39886;47.984;-1.586;2023-02-28T09:30:44;20.70;47.50
53978;DHT22;39886;47.984;-1.586;2023-02-28T09:33:10;20.70;47.40
53978;DHT22;39886;47.984;-1.586;2023-02-28T09:35:36;20.70;47.40
53978;DHT22;39886;47.984;-1.586;2023-02-28T09:38:03;20.80;47.50
53978;DHT22;39886;47.984;-1.586;2023-02-28T09:40:30;20.80;47.40
53978;DHT22;39886;47.984;-1.586;2023-02-28T09:42:57;20.80;47.30
53978;DHT22;39886;47.984;-1.586;2023-02-28T09:45:27;20.90;47.40
53978;DHT22;39886;47.984;-1.586;2023-02-28T09:47:59;20.90;47.40
53978;DHT22;39886;47.984;-1.586;2023-02-28T09:50:30;20.90;47.40
53978;DHT22;39886;47.984;-1.586;2023-02-28T09:52:59;20.90;47.20
53978;DHT22;39886;47.984;-1.586;2023-02-28T09:55:43;21.00;47.20
53978;DHT22;39886;47.984;-1.586;2023-02-28T09:58:33;21.00;46.80
53978;DHT22;39886;47.984;-1.586;2023-02-28T10:01:21;21.10;47.00
53978;DHT22;39886;47.984;-1.586;2023-02-28T10:04:31;21.10;47.10
53978;DHT22;39886;47.984;-1.586;2023-02-28T10:07:02;21.10;47.40
53978;DHT22;39886;47.984;-1.586;2023-02-28T10:09:33;21.10;47.50
53978;DHT22;39886;47.984;-1.586;2023-02-28T10:12:04;21.10;47.40
53978;DHT22;39886;47.984;-1.586;2023-02-28T10:14:33;21.10;47.30
53978;DHT22;39886;47.984;-1.586;2023-02-28T10:17:17;21.20;47.60
53978;DHT22;39886;47.984;-1.586;2023-02-28T10:25:21;21.30;47.60
53978;DHT22;39886;47.984;-1.586;2023-02-28T10:27:48;21.40;47.80
53978;DHT22;39886;47.984;-1.586;2023-02-28T10:30:14;21.30;47.50
53978;DHT22;39886;47.984;-1.586;2023-02-28T10:32:47;21.40;47.80
53978;DHT22;39886;47.984;-1.586;2023-02-28T10:35:25;21.40;47.50
53978;DHT22;39886;47.984;-1.586;2023-02-28T10:37:59;21.40;47.50
53978;DHT22;39886;47.984;-1.586;2023-02-28T10:40:35;21.50;47.30
53978;DHT22;39886;47.984;-1.586;2023-02-28T10:45:40;21.60;47.50
53978;DHT22;39886;47.984;-1.586;2023-02-28T11:01:17;21.80;47.30
53978;DHT22;39886;47.984;-1.586;2023-02-28T11:03:43;21.80;47.70
53978;DHT22;39886;47.984;-1.586;2023-02-28T11:06:21;21.70;48.30
53978;DHT22;39886;47.984;-1.586;2023-02-28T11:08:50;21.60;47.30
53978;DHT22;39886;47.984;-1.586;2023-02-28T11:11:17;21.60;47.80
53978;DHT22;39886;47.984;-1.586;2023-02-28T11:13:44;21.50;48.30
53978;DHT22;39886;47.984;-1.586;2023-02-28T11:16:12;21.40;48.10
53978;DHT22;39886;47.984;-1.586;2023-02-28T11:18:48;21.40;48.30
53978;DHT22;39886;47.984;-1.586;2023-02-28T11:21:27;21.30;48.40
53978;DHT22;39886;47.984;-1.586;2023-02-28T11:26:56;21.20;47.90
53978;DHT22;39886;47.984;-1.586;2023-02-28T11:29:29;21.20;48.00
53978;DHT22;39886;47.984;-1.586;2023-02-28T11:34:28;21.10;48.50
53978;DHT22;39886;47.984;-1.586;2023-02-28T11:36:55;21.10;48.40
53978;DHT22;39886;47.984;-1.586;2023-02-28T11:39:23;21.10;48.20
53978;DHT22;39886;47.984;-1.586;2023-02-28T11:47:26;21.00;48.20
53978;DHT22;39886;47.984;-1.586;2023-02-28T11:50:26;21.00;48.20
53978;DHT22;39886;47.984;-1.586;2023-02-28T11:52:55;20.90;48.20
53978;DHT22;39886;47.984;-1.586;2023-02-28T11:55:27;20.90;48.20
53978;DHT22;39886;47.984;-1.586;2023-02-28T12:00:45;20.80;48.20
53978;DHT22;39886;47.984;-1.586;2023-02-28T12:06:30;21.00;47.80
53978;DHT22;39886;47.984;-1.586;2023-02-28T12:09:27;21.10;47.40
53978;DHT22;39886;47.984;-1.586;2023-02-28T12:25:46;21.60;46.30
53978;DHT22;39886;47.984;-1.586;2023-02-28T12:28:15;21.60;46.10
53978;DHT22;39886;47.984;-1.586;2023-02-28T12:30:53;21.70;45.60
53978;DHT22;39886;47.984;-1.586;2023-02-28T12:33:26;21.70;45.60
53978;DHT22;39886;47.984;-1.586;2023-02-28T12:35:59;21.80;45.40
53978;DHT22;39886;47.984;-1.586;2023-02-28T12:38:48;21.80;44.70
53978;DHT22;39886;47.984;-1.586;2023-02-28T12:41:26;21.90;45.20
53978;DHT22;39886;47.984;-1.586;2023-02-28T12:44:02;22.00;45.30
53978;DHT22;39886;47.984;-1.586;2023-02-28T12:46:51;22.00;45.00
53978;DHT22;39886;47.984;-1.586;2023-02-28T12:49:46;22.10;45.20
53978;DHT22;39886;47.984;-1.586;2023-02-28T12:52:11;22.10;44.80
53978;DHT22;39886;47.984;-1.586;2023-02-28T12:57:46;22.20;45.10
53978;DHT22;39886;47.984;-1.586;2023-02-28T13:00:22;22.30;45.00
53978;DHT22;39886;47.984;-1.586;2023-02-28T13:03:31;22.40;45.20
53978;DHT22;39886;47.984;-1.586;2023-02-28T13:11:40;22.60;44.70
53978;DHT22;39886;47.984;-1.586;2023-02-28T13:17:09;22.70;45.80
53978;DHT22;39886;47.984;-1.586;2023-02-28T13:19:46;22.70;45.20
53978;DHT22;39886;47.984;-1.586;2023-02-28T13:24:55;22.50;45.50
53978;DHT22;39886;47.984;-1.586;2023-02-28T13:27:37;22.50;45.80
53978;DHT22;39886;47.984;-1.586;2023-02-28T13:35:50;22.30;46.30
53978;DHT22;39886;47.984;-1.586;2023-02-28T13:38:39;22.30;46.70
53978;DHT22;39886;47.984;-1.586;2023-02-28T13:46:35;22.20;47.50
53978;DHT22;39886;47.984;-1.586;2023-02-28T13:52:03;22.10;48.10
53978;DHT22;39886;47.984;-1.586;2023-02-28T13:59:56;22.00;47.90
53978;DHT22;39886;47.984;-1.586;2023-02-28T14:02:45;22.00;48.50
53978;DHT22;39886;47.984;-1.586;2023-02-28T14:05:18;22.00;48.70
53978;DHT22;39886;47.984;-1.586;2023-02-28T14:07:53;21.90;48.20
53978;DHT22;39886;47.984;-1.586;2023-02-28T14:10:32;21.90;48.10
53978;DHT22;39886;47.984;-1.586;2023-02-28T14:15:59;21.80;48.40
53978;DHT22;39886;47.984;-1.586;2023-02-28T14:18:35;21.80;48.60
53978;DHT22;39886;47.984;-1.586;2023-02-28T14:21:21;21.80;48.40
53978;DHT22;39886;47.984;-1.586;2023-02-28T14:37:41;21.50;48.70
53978;DHT22;39886;47.984;-1.586;2023-02-28T14:40:30;21.50;49.10
53978;DHT22;39886;47.984;-1.586;2023-02-28T14:43:04;21.50;49.20
53978;DHT22;39886;47.984;-1.586;2023-02-28T14:45:32;21.50;49.40
53978;DHT22;39886;47.984;-1.586;2023-02-28T14:47:59;21.50;49.70
53978;DHT22;39886;47.984;-1.586;2023-02-28T14:50:52;21.40;49.60
53978;DHT22;39886;47.984;-1.586;2023-02-28T14:53:20;21.40;49.60
53978;DHT22;39886;47.984;-1.586;2023-02-28T14:55:48;21.40;49.80
53978;DHT22;39886;47.984;-1.586;2023-02-28T14:58:25;21.40;50.20
53978;DHT22;39886;47.984;-1.586;2023-02-28T15:00:53;21.30;49.90
53978;DHT22;39886;47.984;-1.586;2023-02-28T15:03:37;21.30;50.10
53978;DHT22;39886;47.984;-1.586;2023-02-28T15:06:05;21.30;50.10
53978;DHT22;39886;47.984;-1.586;2023-02-28T15:08:32;21.20;50.00
53978;DHT22;39886;47.984;-1.586;2023-02-28T15:11:13;21.20;49.90
53978;DHT22;39886;47.984;-1.586;2023-02-28T15:13:50;21.20;49.80
53978;DHT22;39886;47.984;-1.586;2023-02-28T15:16:31;21.20;49.80
53978;DHT22;39886;47.984;-1.586;2023-02-28T15:18:58;21.20;49.70
53978;DHT22;39886;47.984;-1.586;2023-02-28T15:21:30;21.40;49.50
53978;DHT22;39886;47.984;-1.586;2023-02-28T15:26:43;21.50;49.50
53978;DHT22;39886;47.984;-1.586;2023-02-28T15:29:21;21.60;49.50
53978;DHT22;39886;47.984;-1.586;2023-02-28T15:31:50;21.70;49.80
53978;DHT22;39886;47.984;-1.586;2023-02-28T15:34:22;21.70;49.70
53978;DHT22;39886;47.984;-1.586;2023-02-28T15:36:48;21.80;49.50
53978;DHT22;39886;47.984;-1.586;2023-02-28T15:39:25;21.80;49.70
53978;DHT22;39886;47.984;-1.586;2023-02-28T15:41:54;21.80;49.90
53978;DHT22;39886;47.984;-1.586;2023-02-28T15:44:35;21.90;49.70
53978;DHT22;39886;47.984;-1.586;2023-02-28T15:47:18;21.90;49.20
53978;DHT22;39886;47.984;-1.586;2023-02-28T15:50:09;21.90;49.00
53978;DHT22;39886;47.984;-1.586;2023-02-28T15:52:42;22.00;49.30
53978;DHT22;39886;47.984;-1.586;2023-02-28T15:55:24;21.90;49.80
53978;DHT22;39886;47.984;-1.586;2023-02-28T15:57:54;22.00;49.70
53978;DHT22;39886;47.984;-1.586;2023-02-28T16:00:26;22.00;49.80
53978;DHT22;39886;47.984;-1.586;2023-02-28T16:02:52;22.00;49.50
53978;DHT22;39886;47.984;-1.586;2023-02-28T16:05:21;22.00;49.70
53978;DHT22;39886;47.984;-1.586;2023-02-28T16:07:54;22.10;49.50
53978;DHT22;39886;47.984;-1.586;2023-02-28T16:10:21;22.10;49.50
53978;DHT22;39886;47.984;-1.586;2023-02-28T16:12:52;22.10;49.80
53978;DHT22;39886;47.984;-1.586;2023-02-28T16:15:21;22.00;49.70
53978;DHT22;39886;47.984;-1.586;2023-02-28T16:17:48;21.90;49.80
53978;DHT22;39886;47.984;-1.586;2023-02-28T16:20:18;21.80;50.00
53978;DHT22;39886;47.984;-1.586;2023-02-28T16:22:44;21.70;49.90
53978;DHT22;39886;47.984;-1.586;2023-02-28T16:25:15;21.70;50.20
53978;DHT22;39886;47.984;-1.586;2023-02-28T16:27:43;21.60;50.20
53978;DHT22;39886;47.984;-1.586;2023-02-28T16:30:20;21.60;50.60
53978;DHT22;39886;47.984;-1.586;2023-02-28T16:32:47;21.50;51.20
53978;DHT22;39886;47.984;-1.586;2023-02-28T16:35:14;21.50;50.70
53978;DHT22;39886;47.984;-1.586;2023-02-28T16:37:40;21.40;50.90
53978;DHT22;39886;47.984;-1.586;2023-02-28T16:40:09;21.30;51.00
53978;DHT22;39886;47.984;-1.586;2023-02-28T16:42:38;21.30;51.10
53978;DHT22;39886;47.984;-1.586;2023-02-28T16:45:05;21.30;51.00
53978;DHT22;39886;47.984;-1.586;2023-02-28T16:47:31;21.20;51.30
53978;DHT22;39886;47.984;-1.586;2023-02-28T16:49:58;21.20;51.30
53978;DHT22;39886;47.984;-1.586;2023-02-28T16:52:23;21.10;51.70
53978;DHT22;39886;47.984;-1.586;2023-02-28T16:54:49;21.10;52.10
53978;DHT22;39886;47.984;-1.586;2023-02-28T16:57:22;21.00;51.80
53978;DHT22;39886;47.984;-1.586;2023-02-28T16:59:49;21.00;52.10
53978;DHT22;39886;47.984;-1.586;2023-02-28T17:02:19;21.00;52.20
53978;DHT22;39886;47.984;-1.586;2023-02-28T17:04:45;20.90;52.10
53978;DHT22;39886;47.984;-1.586;2023-02-28T17:07:13;20.90;51.80
53978;DHT22;39886;47.984;-1.586;2023-02-28T17:09:39;20.80;52.00
53978;DHT22;39886;47.984;-1.586;2023-02-28T17:12:06;20.80;52.10
53978;DHT22;39886;47.984;-1.586;2023-02-28T17:14:32;20.80;52.20
53978;DHT22;39886;47.984;-1.586;2023-02-28T17:16:57;20.80;52.00
53978;DHT22;39886;47.984;-1.586;2023-02-28T17:19:23;20.90;52.10
53978;DHT22;39886;47.984;-1.586;2023-02-28T17:21:49;21.00;51.70
53978;DHT22;39886;47.984;-1.586;2023-02-28T17:24:15;21.00;51.40
53978;DHT22;39886;47.984;-1.586;2023-02-28T17:26:41;21.10;51.20
53978;DHT22;39886;47.984;-1.586;2023-02-28T17:29:16;21.20;50.70
53978;DHT22;39886;47.984;-1.586;2023-02-28T17:31:41;21.20;50.90
53978;DHT22;39886;47.984;-1.586;2023-02-28T17:34:07;21.20;50.90
53978;DHT22;39886;47.984;-1.586;2023-02-28T17:36:33;21.10;50.80
53978;DHT22;39886;47.984;-1.586;2023-02-28T17:39:01;21.00;51.10
53978;DHT22;39886;47.984;-1.586;2023-02-28T17:41:26;20.90;51.30
53978;DHT22;39886;47.984;-1.586;2023-02-28T17:43:55;20.80;51.60
53978;DHT22;39886;47.984;-1.586;2023-02-28T17:46:23;20.70;51.80
53978;DHT22;39886;47.984;-1.586;2023-02-28T17:48:51;20.60;52.00